sensor_id;sensor_type;location;lat;lon;timestamp;P1;durP1;ratioP1;P2;durP2;ratioP2
7074;SDS011;3578;51.568;6.932;2023-07-28T00:02:10;14.23;;;12.83;;
7074;SDS011;3578;51.568;6.932;2023-07-28T00:04:37;16.83;;;14.27;;
7074;SDS011;3578;51.568;6.932;2023-07-28T00:07:04;13.73;;;12.27;;
7074;SDS011;3578;51.568;6.932;2023-07-28T00:09:32;17.90;;;14.00;;
7074;SDS011;3578;51.568;6.932;2023-07-28T00:12:00;15.63;;;13.87;;
7074;SDS011;3578;51.568;6.932;2023-07-28T00:14:27;19.83;;;14.53;;
7074;SDS011;3578;51.568;6.932;2023-07-28T00:16:55;15.03;;;13.63;;
7074;SDS011;3578;51.568;6.932;2023-07-28T00:19:25;20.00;;;15.57;;
7074;SDS011;3578;51.568;6.932;2023-07-28T00:21:52;16.90;;;15.20;;
7074;SDS011;3578;51.568;6.932;2023-07-28T00:24:21;19.10;;;15.00;;
7074;SDS011;3578;51.568;6.932;2023-07-28T00:26:48;15.90;;;14.30;;
7074;SDS011;3578;51.568;6.932;2023-07-28T00:29:15;16.73;;;14.90;;
7074;SDS011;3578;51.568;6.932;2023-07-28T00:31:42;17.73;;;14.60;;
7074;SDS011;3578;51.568;6.932;2023-07-28T00:34:09;18.47;;;16.47;;
7074;SDS011;3578;51.568;6.932;2023-07-28T00:36:37;17.40;;;15.17;;
7074;SDS011;3578;51.568;6.932;2023-07-28T00:39:04;18.23;;;16.00;;
7074;SDS011;3578;51.568;6.932;2023-07-28T00:41:31;20.80;;;15.80;;
7074;SDS011;3578;51.568;6.932;2023-07-28T00:43:58;23.83;;;17.60;;
7074;SDS011;3578;51.568;6.932;2023-07-28T00:46:25;21.47;;;18.37;;
7074;SDS011;3578;51.568;6.932;2023-07-28T00:48:52;20.07;;;18.07;;
7074;SDS011;3578;51.568;6.932;2023-07-28T00:51:20;22.87;;;20.03;;
7074;SDS011;3578;51.568;6.932;2023-07-28T00:53:49;21.37;;;19.23;;
7074;SDS011;3578;51.568;6.932;2023-07-28T00:56:18;25.73;;;21.80;;
7074;SDS011;3578;51.568;6.932;2023-07-28T00:58:46;23.03;;;20.73;;
7074;SDS011;3578;51.568;6.932;2023-07-28T01:01:15;24.23;;;19.60;;
7074;SDS011;3578;51.568;6.932;2023-07-28T01:03:42;24.57;;;19.17;;
7074;SDS011;3578;51.568;6.932;2023-07-28T01:06:12;20.10;;;18.00;;
7074;SDS011;3578;51.568;6.932;2023-07-28T01:08:46;18.60;;;16.60;;
7074;SDS011;3578;51.568;6.932;2023-07-28T01:11:25;16.90;;;15.20;;
7074;SDS011;3578;51.568;6.932;2023-07-28T01:13:52;18.47;;;16.60;;
7074;SDS011;3578;51.568;6.932;2023-07-28T01:16:19;15.00;;;13.40;;
7074;SDS011;3578;51.568;6.932;2023-07-28T01:18:46;14.77;;;13.30;;
7074;SDS011;3578;51.568;6.932;2023-07-28T01:21:17;14.10;;;11.97;;
7074;SDS011;3578;51.568;6.932;2023-07-28T01:24:01;11.40;;;10.30;;
7074;SDS011;3578;51.568;6.932;2023-07-28T01:26:43;11.93;;;10.03;;
7074;SDS011;3578;51.568;6.932;2023-07-28T01:29:10;13.33;;;12.13;;
7074;SDS011;3578;51.568;6.932;2023-07-28T01:31:40;13.13;;;11.80;;
7074;SDS011;3578;51.568;6.932;2023-07-28T01:34:07;14.70;;;11.93;;
7074;SDS011;3578;51.568;6.932;2023-07-28T01:36:34;11.87;;;10.83;;
7074;SDS011;3578;51.568;6.932;2023-07-28T01:39:01;13.17;;;11.97;;
7074;SDS011;3578;51.568;6.932;2023-07-28T01:41:28;13.23;;;11.90;;
7074;SDS011;3578;51.568;6.932;2023-07-28T01:43:56;12.50;;;10.70;;
7074;SDS011;3578;51.568;6.932;2023-07-28T01:46:24;14.10;;;12.60;;
7074;SDS011;3578;51.568;6.932;2023-07-28T01:48:51;13.97;;;12.57;;
7074;SDS011;3578;51.568;6.932;2023-07-28T01:51:17;14.33;;;12.63;;
7074;SDS011;3578;51.568;6.932;2023-07-28T01:53:44;15.30;;;13.40;;
7074;SDS011;3578;51.568;6.932;2023-07-28T01:56:11;15.77;;;14.17;;
7074;SDS011;3578;51.568;6.932;2023-07-28T01:58:39;17.70;;;13.97;;
7074;SDS011;3578;51.568;6.932;2023-07-28T02:01:07;16.20;;;14.50;;
7074;SDS011;3578;51.568;6.932;2023-07-28T02:03:35;17.53;;;15.73;;
7074;SDS011;3578;51.568;6.932;2023-07-28T02:06:02;18.70;;;16.20;;
7074;SDS011;3578;51.568;6.932;2023-07-28T02:08:29;19.07;;;17.17;;
7074;SDS011;3578;51.568;6.932;2023-07-28T02:10:56;20.50;;;18.13;;
7074;SDS011;3578;51.568;6.932;2023-07-28T02:13:22;18.07;;;16.33;;
7074;SDS011;3578;51.568;6.932;2023-07-28T02:15:49;21.10;;;18.90;;
7074;SDS011;3578;51.568;6.932;2023-07-28T02:18:18;22.43;;;20.03;;
7074;SDS011;3578;51.568;6.932;2023-07-28T02:20:47;20.33;;;17.80;;
7074;SDS011;3578;51.568;6.932;2023-07-28T02:23:14;22.60;;;20.20;;
7074;SDS011;3578;51.568;6.932;2023-07-28T02:25:41;22.37;;;20.00;;
7074;SDS011;3578;51.568;6.932;2023-07-28T02:28:09;21.83;;;19.50;;
7074;SDS011;3578;51.568;6.932;2023-07-28T02:30:36;22.97;;;20.03;;
7074;SDS011;3578;51.568;6.932;2023-07-28T02:33:03;28.27;;;20.80;;
7074;SDS011;3578;51.568;6.932;2023-07-28T02:35:32;22.80;;;20.30;;
7074;SDS011;3578;51.568;6.932;2023-07-28T02:37:59;24.63;;;20.20;;
7074;SDS011;3578;51.568;6.932;2023-07-28T02:40:26;21.73;;;19.00;;
7074;SDS011;3578;51.568;6.932;2023-07-28T02:42:53;20.90;;;18.50;;
7074;SDS011;3578;51.568;6.932;2023-07-28T02:45:22;22.03;;;17.60;;
7074;SDS011;3578;51.568;6.932;2023-07-28T02:47:50;19.80;;;16.90;;
7074;SDS011;3578;51.568;6.932;2023-07-28T02:50:17;19.07;;;16.90;;
7074;SDS011;3578;51.568;6.932;2023-07-28T02:52:45;22.63;;;16.67;;
7074;SDS011;3578;51.568;6.932;2023-07-28T02:55:12;21.43;;;16.60;;
7074;SDS011;3578;51.568;6.932;2023-07-28T02:57:39;20.90;;;16.73;;
7074;SDS011;3578;51.568;6.932;2023-07-28T03:00:06;18.33;;;16.00;;
7074;SDS011;3578;51.568;6.932;2023-07-28T03:02:36;17.73;;;15.83;;
7074;SDS011;3578;51.568;6.932;2023-07-28T03:05:03;18.77;;;15.67;;
7074;SDS011;3578;51.568;6.932;2023-07-28T03:07:31;17.10;;;15.23;;
7074;SDS011;3578;51.568;6.932;2023-07-28T03:09:59;16.93;;;14.93;;
7074;SDS011;3578;51.568;6.932;2023-07-28T03:12:26;16.80;;;13.13;;
7074;SDS011;3578;51.568;6.932;2023-07-28T03:14:53;13.27;;;10.90;;
7074;SDS011;3578;51.568;6.932;2023-07-28T03:17:20;13.40;;;11.90;;
7074;SDS011;3578;51.568;6.932;2023-07-28T03:19:47;13.07;;;11.63;;
7074;SDS011;3578;51.568;6.932;2023-07-28T03:22:14;12.40;;;10.90;;
7074;SDS011;3578;51.568;6.932;2023-07-28T03:24:41;12.73;;;10.93;;
7074;SDS011;3578;51.568;6.932;2023-07-28T03:27:12;14.47;;;10.83;;
7074;SDS011;3578;51.568;6.932;2023-07-28T03:29:39;16.13;;;12.50;;
7074;SDS011;3578;51.568;6.932;2023-07-28T03:32:06;15.80;;;12.20;;
7074;SDS011;3578;51.568;6.932;2023-07-28T03:34:33;13.13;;;11.50;;
7074;SDS011;3578;51.568;6.932;2023-07-28T03:37:00;11.97;;;10.77;;
7074;SDS011;3578;51.568;6.932;2023-07-28T03:39:28;14.20;;;10.77;;
7074;SDS011;3578;51.568;6.932;2023-07-28T03:41:56;12.50;;;10.07;;
7074;SDS011;3578;51.568;6.932;2023-07-28T03:44:24;12.10;;;9.10;;
7074;SDS011;3578;51.568;6.932;2023-07-28T03:46:52;10.80;;;9.70;;
7074;SDS011;3578;51.568;6.932;2023-07-28T03:49:19;13.07;;;10.47;;
7074;SDS011;3578;51.568;6.932;2023-07-28T03:51:46;11.93;;;10.53;;
7074;SDS011;3578;51.568;6.932;2023-07-28T03:54:13;12.30;;;11.10;;
7074;SDS011;3578;51.568;6.932;2023-07-28T03:56:40;18.30;;;12.30;;
7074;SDS011;3578;51.568;6.932;2023-07-28T03:59:06;16.70;;;12.27;;
7074;SDS011;3578;51.568;6.932;2023-07-28T04:01:35;15.43;;;13.17;;
7074;SDS011;3578;51.568;6.932;2023-07-28T04:04:02;15.17;;;13.77;;
7074;SDS011;3578;51.568;6.932;2023-07-28T04:06:38;14.83;;;11.90;;
7074;SDS011;3578;51.568;6.932;2023-07-28T04:09:07;17.90;;;13.07;;
7074;SDS011;3578;51.568;6.932;2023-07-28T04:11:34;15.63;;;13.90;;
7074;SDS011;3578;51.568;6.932;2023-07-28T04:14:01;15.30;;;13.50;;
7074;SDS011;3578;51.568;6.932;2023-07-28T04:16:28;17.40;;;13.40;;
7074;SDS011;3578;51.568;6.932;2023-07-28T04:18:57;14.73;;;13.23;;
7074;SDS011;3578;51.568;6.932;2023-07-28T04:21:24;14.83;;;13.27;;
7074;SDS011;3578;51.568;6.932;2023-07-28T04:23:51;14.50;;;13.00;;
7074;SDS011;3578;51.568;6.932;2023-07-28T04:26:18;15.17;;;12.93;;
7074;SDS011;3578;51.568;6.932;2023-07-28T04:28:46;18.70;;;12.63;;
7074;SDS011;3578;51.568;6.932;2023-07-28T04:31:12;14.37;;;13.03;;
7074;SDS011;3578;51.568;6.932;2023-07-28T04:33:40;19.10;;;16.60;;
7074;SDS011;3578;51.568;6.932;2023-07-28T04:36:09;17.10;;;15.07;;
7074;SDS011;3578;51.568;6.932;2023-07-28T04:38:36;17.50;;;15.03;;
7074;SDS011;3578;51.568;6.932;2023-07-28T04:41:03;19.03;;;16.93;;
7074;SDS011;3578;51.568;6.932;2023-07-28T04:43:30;18.43;;;15.73;;
7074;SDS011;3578;51.568;6.932;2023-07-28T04:45:57;18.83;;;16.80;;
7074;SDS011;3578;51.568;6.932;2023-07-28T04:48:24;19.00;;;16.07;;
7074;SDS011;3578;51.568;6.932;2023-07-28T04:50:51;17.70;;;16.00;;
7074;SDS011;3578;51.568;6.932;2023-07-28T04:53:19;16.77;;;15.03;;
7074;SDS011;3578;51.568;6.932;2023-07-28T04:55:46;18.17;;;16.23;;
7074;SDS011;3578;51.568;6.932;2023-07-28T04:58:13;22.50;;;14.70;;
7074;SDS011;3578;51.568;6.932;2023-07-28T05:00:40;18.90;;;17.00;;
7074;SDS011;3578;51.568;6.932;2023-07-28T05:03:07;25.60;;;19.90;;
7074;SDS011;3578;51.568;6.932;2023-07-28T05:05:34;23.13;;;19.07;;
7074;SDS011;3578;51.568;6.932;2023-07-28T05:08:01;20.80;;;18.57;;
7074;SDS011;3578;51.568;6.932;2023-07-28T05:10:29;21.23;;;17.13;;
7074;SDS011;3578;51.568;6.932;2023-07-28T05:12:56;23.37;;;18.47;;
7074;SDS011;3578;51.568;6.932;2023-07-28T05:15:23;21.70;;;18.43;;
7074;SDS011;3578;51.568;6.932;2023-07-28T05:17:50;22.87;;;19.10;;
7074;SDS011;3578;51.568;6.932;2023-07-28T05:20:17;21.27;;;17.00;;
7074;SDS011;3578;51.568;6.932;2023-07-28T05:22:44;22.00;;;18.13;;
7074;SDS011;3578;51.568;6.932;2023-07-28T05:25:11;20.60;;;16.63;;
7074;SDS011;3578;51.568;6.932;2023-07-28T05:27:39;18.83;;;16.20;;
7074;SDS011;3578;51.568;6.932;2023-07-28T05:30:07;18.57;;;15.13;;
7074;SDS011;3578;51.568;6.932;2023-07-28T05:32:34;19.63;;;14.93;;
7074;SDS011;3578;51.568;6.932;2023-07-28T05:35:01;17.43;;;14.63;;
7074;SDS011;3578;51.568;6.932;2023-07-28T05:37:29;16.17;;;14.37;;
7074;SDS011;3578;51.568;6.932;2023-07-28T05:39:56;15.10;;;13.50;;
7074;SDS011;3578;51.568;6.932;2023-07-28T05:42:23;12.60;;;11.30;;
7074;SDS011;3578;51.568;6.932;2023-07-28T05:44:51;12.03;;;10.03;;
7074;SDS011;3578;51.568;6.932;2023-07-28T05:47:20;14.17;;;10.97;;
7074;SDS011;3578;51.568;6.932;2023-07-28T05:49:47;12.33;;;11.13;;
7074;SDS011;3578;51.568;6.932;2023-07-28T05:52:14;11.97;;;10.77;;
7074;SDS011;3578;51.568;6.932;2023-07-28T05:54:41;11.03;;;9.97;;
7074;SDS011;3578;51.568;6.932;2023-07-28T05:57:08;10.77;;;9.67;;
7074;SDS011;3578;51.568;6.932;2023-07-28T05:59:35;11.97;;;10.37;;
7074;SDS011;3578;51.568;6.932;2023-07-28T06:02:03;11.27;;;10.17;;
7074;SDS011;3578;51.568;6.932;2023-07-28T06:04:30;9.53;;;8.60;;
7074;SDS011;3578;51.568;6.932;2023-07-28T06:06:57;9.40;;;8.60;;
7074;SDS011;3578;51.568;6.932;2023-07-28T06:09:24;9.00;;;7.90;;
7074;SDS011;3578;51.568;6.932;2023-07-28T06:11:52;11.67;;;8.10;;
7074;SDS011;3578;51.568;6.932;2023-07-28T06:14:19;9.23;;;8.30;;
7074;SDS011;3578;51.568;6.932;2023-07-28T06:16:46;10.77;;;8.30;;
7074;SDS011;3578;51.568;6.932;2023-07-28T06:19:14;9.50;;;8.50;;
7074;SDS011;3578;51.568;6.932;2023-07-28T06:21:48;9.57;;;7.80;;
7074;SDS011;3578;51.568;6.932;2023-07-28T06:24:16;12.00;;;7.80;;
7074;SDS011;3578;51.568;6.932;2023-07-28T06:26:44;9.87;;;7.80;;
7074;SDS011;3578;51.568;6.932;2023-07-28T06:29:11;10.00;;;8.43;;
7074;SDS011;3578;51.568;6.932;2023-07-28T06:31:38;19.90;;;8.40;;
7074;SDS011;3578;51.568;6.932;2023-07-28T06:34:05;10.40;;;8.27;;
7074;SDS011;3578;51.568;6.932;2023-07-28T06:36:34;10.17;;;9.17;;
7074;SDS011;3578;51.568;6.932;2023-07-28T06:39:00;10.77;;;8.90;;
7074;SDS011;3578;51.568;6.932;2023-07-28T06:41:27;11.00;;;8.27;;
7074;SDS011;3578;51.568;6.932;2023-07-28T06:43:54;17.83;;;10.20;;
7074;SDS011;3578;51.568;6.932;2023-07-28T06:46:21;10.10;;;8.97;;
7074;SDS011;3578;51.568;6.932;2023-07-28T06:48:49;10.10;;;8.63;;
7074;SDS011;3578;51.568;6.932;2023-07-28T06:51:15;11.43;;;10.23;;
7074;SDS011;3578;51.568;6.932;2023-07-28T06:53:44;11.63;;;9.60;;
7074;SDS011;3578;51.568;6.932;2023-07-28T06:56:11;11.37;;;8.70;;
7074;SDS011;3578;51.568;6.932;2023-07-28T06:58:38;11.07;;;9.37;;
7074;SDS011;3578;51.568;6.932;2023-07-28T07:01:04;12.47;;;10.23;;
7074;SDS011;3578;51.568;6.932;2023-07-28T07:03:34;11.63;;;8.87;;
7074;SDS011;3578;51.568;6.932;2023-07-28T07:06:00;10.87;;;8.67;;
7074;SDS011;3578;51.568;6.932;2023-07-28T07:08:27;10.13;;;8.97;;
7074;SDS011;3578;51.568;6.932;2023-07-28T07:10:56;12.77;;;9.37;;
7074;SDS011;3578;51.568;6.932;2023-07-28T07:13:23;10.33;;;9.33;;
7074;SDS011;3578;51.568;6.932;2023-07-28T07:15:50;9.80;;;8.80;;
7074;SDS011;3578;51.568;6.932;2023-07-28T07:18:17;10.17;;;8.30;;
7074;SDS011;3578;51.568;6.932;2023-07-28T07:20:44;10.20;;;9.20;;
7074;SDS011;3578;51.568;6.932;2023-07-28T07:23:11;13.43;;;9.77;;
7074;SDS011;3578;51.568;6.932;2023-07-28T07:25:39;11.37;;;10.20;;
7074;SDS011;3578;51.568;6.932;2023-07-28T07:28:07;12.13;;;10.93;;
7074;SDS011;3578;51.568;6.932;2023-07-28T07:30:34;12.57;;;10.70;;
7074;SDS011;3578;51.568;6.932;2023-07-28T07:33:01;12.13;;;10.90;;
7074;SDS011;3578;51.568;6.932;2023-07-28T07:35:28;14.23;;;12.87;;
7074;SDS011;3578;51.568;6.932;2023-07-28T07:37:55;13.93;;;12.37;;
7074;SDS011;3578;51.568;6.932;2023-07-28T07:40:22;11.13;;;10.17;;
7074;SDS011;3578;51.568;6.932;2023-07-28T07:42:49;12.47;;;11.30;;
7074;SDS011;3578;51.568;6.932;2023-07-28T07:45:18;12.60;;;11.30;;
7074;SDS011;3578;51.568;6.932;2023-07-28T07:47:45;13.13;;;11.80;;
7074;SDS011;3578;51.568;6.932;2023-07-28T07:50:13;13.70;;;12.30;;
7074;SDS011;3578;51.568;6.932;2023-07-28T07:52:40;13.10;;;11.70;;
7074;SDS011;3578;51.568;6.932;2023-07-28T07:55:08;15.10;;;11.50;;
7074;SDS011;3578;51.568;6.932;2023-07-28T07:57:36;13.60;;;11.10;;
7074;SDS011;3578;51.568;6.932;2023-07-28T08:00:03;12.40;;;10.90;;
7074;SDS011;3578;51.568;6.932;2023-07-28T08:02:33;11.80;;;10.43;;
7074;SDS011;3578;51.568;6.932;2023-07-28T08:05:00;13.50;;;10.60;;
7074;SDS011;3578;51.568;6.932;2023-07-28T08:07:28;11.37;;;9.20;;
7074;SDS011;3578;51.568;6.932;2023-07-28T08:09:55;11.63;;;9.57;;
7074;SDS011;3578;51.568;6.932;2023-07-28T08:12:22;13.07;;;9.73;;
7074;SDS011;3578;51.568;6.932;2023-07-28T08:14:49;11.33;;;10.20;;
7074;SDS011;3578;51.568;6.932;2023-07-28T08:17:16;11.70;;;9.50;;
7074;SDS011;3578;51.568;6.932;2023-07-28T08:19:44;11.53;;;9.87;;
7074;SDS011;3578;51.568;6.932;2023-07-28T08:22:11;12.50;;;10.20;;
7074;SDS011;3578;51.568;6.932;2023-07-28T08:24:38;11.70;;;10.50;;
7074;SDS011;3578;51.568;6.932;2023-07-28T08:27:05;11.50;;;10.03;;
7074;SDS011;3578;51.568;6.932;2023-07-28T08:29:33;10.87;;;9.77;;
7074;SDS011;3578;51.568;6.932;2023-07-28T08:32:00;9.43;;;8.50;;
7074;SDS011;3578;51.568;6.932;2023-07-28T08:34:27;8.00;;;7.23;;
7074;SDS011;3578;51.568;6.932;2023-07-28T08:36:55;8.20;;;7.40;;
7074;SDS011;3578;51.568;6.932;2023-07-28T08:39:22;9.40;;;6.93;;
7074;SDS011;3578;51.568;6.932;2023-07-28T08:41:56;7.43;;;6.73;;
7074;SDS011;3578;51.568;6.932;2023-07-28T08:44:25;9.10;;;8.03;;
7074;SDS011;3578;51.568;6.932;2023-07-28T08:46:52;8.70;;;7.97;;
7074;SDS011;3578;51.568;6.932;2023-07-28T08:49:19;7.57;;;6.87;;
7074;SDS011;3578;51.568;6.932;2023-07-28T08:51:48;7.50;;;6.80;;
7074;SDS011;3578;51.568;6.932;2023-07-28T08:54:17;7.13;;;6.43;;
7074;SDS011;3578;51.568;6.932;2023-07-28T08:56:44;7.93;;;5.83;;
7074;SDS011;3578;51.568;6.932;2023-07-28T08:59:11;7.30;;;6.70;;
7074;SDS011;3578;51.568;6.932;2023-07-28T09:01:38;6.70;;;6.00;;
7074;SDS011;3578;51.568;6.932;2023-07-28T09:04:09;6.20;;;5.70;;
7074;SDS011;3578;51.568;6.932;2023-07-28T09:06:36;5.50;;;5.13;;
7074;SDS011;3578;51.568;6.932;2023-07-28T09:09:05;5.70;;;5.20;;
7074;SDS011;3578;51.568;6.932;2023-07-28T09:11:35;5.10;;;4.70;;
7074;SDS011;3578;51.568;6.932;2023-07-28T09:14:11;5.87;;;5.37;;
7074;SDS011;3578;51.568;6.932;2023-07-28T09:16:39;5.63;;;5.10;;
7074;SDS011;3578;51.568;6.932;2023-07-28T09:19:06;5.30;;;4.80;;
7074;SDS011;3578;51.568;6.932;2023-07-28T09:21:35;5.83;;;5.43;;
7074;SDS011;3578;51.568;6.932;2023-07-28T09:24:04;7.00;;;6.50;;
7074;SDS011;3578;51.568;6.932;2023-07-28T09:26:40;6.67;;;6.17;;
7074;SDS011;3578;51.568;6.932;2023-07-28T09:29:13;6.57;;;6.07;;
7074;SDS011;3578;51.568;6.932;2023-07-28T09:31:40;5.93;;;5.53;;
7074;SDS011;3578;51.568;6.932;2023-07-28T09:34:08;4.50;;;4.30;;
7074;SDS011;3578;51.568;6.932;2023-07-28T09:36:35;5.90;;;4.10;;
7074;SDS011;3578;51.568;6.932;2023-07-28T09:39:04;5.40;;;4.70;;
7074;SDS011;3578;51.568;6.932;2023-07-28T09:41:34;9.57;;;5.83;;
7074;SDS011;3578;51.568;6.932;2023-07-28T09:44:04;6.17;;;5.63;;
7074;SDS011;3578;51.568;6.932;2023-07-28T09:46:32;5.70;;;5.20;;
7074;SDS011;3578;51.568;6.932;2023-07-28T09:49:02;6.07;;;5.67;;
7074;SDS011;3578;51.568;6.932;2023-07-28T09:51:32;5.67;;;5.20;;
7074;SDS011;3578;51.568;6.932;2023-07-28T09:54:03;4.53;;;4.23;;
7074;SDS011;3578;51.568;6.932;2023-07-28T09:56:32;5.23;;;4.77;;
7074;SDS011;3578;51.568;6.932;2023-07-28T09:59:01;4.93;;;4.63;;
7074;SDS011;3578;51.568;6.932;2023-07-28T10:01:37;7.10;;;4.40;;
7074;SDS011;3578;51.568;6.932;2023-07-28T10:04:05;4.57;;;4.27;;
7074;SDS011;3578;51.568;6.932;2023-07-28T10:06:33;6.00;;;5.60;;
7074;SDS011;3578;51.568;6.932;2023-07-28T10:09:00;7.30;;;6.67;;
7074;SDS011;3578;51.568;6.932;2023-07-28T10:11:27;8.00;;;7.00;;
7074;SDS011;3578;51.568;6.932;2023-07-28T10:13:56;8.10;;;5.83;;
7074;SDS011;3578;51.568;6.932;2023-07-28T10:16:30;6.50;;;6.10;;
7074;SDS011;3578;51.568;6.932;2023-07-28T10:19:04;7.20;;;6.60;;
7074;SDS011;3578;51.568;6.932;2023-07-28T10:21:31;7.47;;;6.77;;
7074;SDS011;3578;51.568;6.932;2023-07-28T10:24:06;6.43;;;5.97;;
7074;SDS011;3578;51.568;6.932;2023-07-28T10:26:36;5.90;;;5.50;;
7074;SDS011;3578;51.568;6.932;2023-07-28T10:29:09;5.97;;;5.53;;
7074;SDS011;3578;51.568;6.932;2023-07-28T10:31:43;6.13;;;5.73;;
7074;SDS011;3578;51.568;6.932;2023-07-28T10:34:17;5.37;;;4.93;;
7074;SDS011;3578;51.568;6.932;2023-07-28T10:36:46;4.60;;;4.30;;
7074;SDS011;3578;51.568;6.932;2023-07-28T10:39:21;5.17;;;4.87;;
7074;SDS011;3578;51.568;6.932;2023-07-28T10:42:02;5.40;;;4.60;;
7074;SDS011;3578;51.568;6.932;2023-07-28T10:44:31;6.47;;;5.87;;
7074;SDS011;3578;51.568;6.932;2023-07-28T10:47:01;5.20;;;4.50;;
7074;SDS011;3578;51.568;6.932;2023-07-28T10:49:33;5.43;;;4.93;;
7074;SDS011;3578;51.568;6.932;2023-07-28T10:52:00;4.73;;;4.30;;
7074;SDS011;3578;51.568;6.932;2023-07-28T10:54:27;4.33;;;4.13;;
7074;SDS011;3578;51.568;6.932;2023-07-28T10:56:56;5.33;;;4.80;;
7074;SDS011;3578;51.568;6.932;2023-07-28T10:59:29;5.30;;;4.80;;
7074;SDS011;3578;51.568;6.932;2023-07-28T11:01:56;5.37;;;4.57;;
7074;SDS011;3578;51.568;6.932;2023-07-28T11:04:24;4.57;;;4.17;;
7074;SDS011;3578;51.568;6.932;2023-07-28T11:06:51;3.73;;;3.53;;
7074;SDS011;3578;51.568;6.932;2023-07-28T11:09:21;5.43;;;3.10;;
7074;SDS011;3578;51.568;6.932;2023-07-28T11:11:49;2.43;;;2.33;;
7074;SDS011;3578;51.568;6.932;2023-07-28T11:14:17;2.27;;;2.17;;
7074;SDS011;3578;51.568;6.932;2023-07-28T11:16:45;4.13;;;2.60;;
7074;SDS011;3578;51.568;6.932;2023-07-28T11:19:13;2.50;;;2.40;;
7074;SDS011;3578;51.568;6.932;2023-07-28T11:21:42;3.87;;;3.67;;
7074;SDS011;3578;51.568;6.932;2023-07-28T11:24:17;3.53;;;3.33;;
7074;SDS011;3578;51.568;6.932;2023-07-28T11:26:45;4.47;;;4.20;;
7074;SDS011;3578;51.568;6.932;2023-07-28T11:29:12;6.50;;;3.83;;
7074;SDS011;3578;51.568;6.932;2023-07-28T11:31:40;5.20;;;4.70;;
7074;SDS011;3578;51.568;6.932;2023-07-28T11:34:12;7.00;;;6.40;;
7074;SDS011;3578;51.568;6.932;2023-07-28T11:36:40;5.93;;;5.50;;
7074;SDS011;3578;51.568;6.932;2023-07-28T11:39:09;6.23;;;5.83;;
7074;SDS011;3578;51.568;6.932;2023-07-28T11:41:36;7.57;;;6.97;;
7074;SDS011;3578;51.568;6.932;2023-07-28T11:44:04;6.97;;;6.40;;
7074;SDS011;3578;51.568;6.932;2023-07-28T11:46:32;6.60;;;6.20;;
7074;SDS011;3578;51.568;6.932;2023-07-28T11:49:08;6.67;;;6.07;;
7074;SDS011;3578;51.568;6.932;2023-07-28T11:51:37;7.77;;;5.23;;
7074;SDS011;3578;51.568;6.932;2023-07-28T11:54:10;4.40;;;4.10;;
7074;SDS011;3578;51.568;6.932;2023-07-28T11:56:39;3.20;;;2.97;;
7074;SDS011;3578;51.568;6.932;2023-07-28T11:59:07;3.20;;;2.97;;
7074;SDS011;3578;51.568;6.932;2023-07-28T12:01:34;2.07;;;2.07;;
7074;SDS011;3578;51.568;6.932;2023-07-28T12:07:00;4.83;;;2.97;;
7074;SDS011;3578;51.568;6.932;2023-07-28T12:09:36;3.20;;;2.67;;
7074;SDS011;3578;51.568;6.932;2023-07-28T12:12:17;2.53;;;2.27;;
7074;SDS011;3578;51.568;6.932;2023-07-28T12:14:46;7.63;;;3.37;;
7074;SDS011;3578;51.568;6.932;2023-07-28T12:17:16;2.33;;;1.87;;
7074;SDS011;3578;51.568;6.932;2023-07-28T12:19:55;6.87;;;2.30;;
7074;SDS011;3578;51.568;6.932;2023-07-28T12:22:24;5.40;;;1.47;;
7074;SDS011;3578;51.568;6.932;2023-07-28T12:24:53;6.47;;;2.20;;
7074;SDS011;3578;51.568;6.932;2023-07-28T12:27:20;1.80;;;1.70;;
7074;SDS011;3578;51.568;6.932;2023-07-28T12:29:49;2.47;;;1.97;;
7074;SDS011;3578;51.568;6.932;2023-07-28T12:32:17;3.67;;;1.93;;
7074;SDS011;3578;51.568;6.932;2023-07-28T12:34:44;4.73;;;2.93;;
7074;SDS011;3578;51.568;6.932;2023-07-28T12:37:11;7.47;;;3.93;;
7074;SDS011;3578;51.568;6.932;2023-07-28T12:39:38;4.93;;;3.67;;
7074;SDS011;3578;51.568;6.932;2023-07-28T12:42:07;5.80;;;3.93;;
7074;SDS011;3578;51.568;6.932;2023-07-28T12:44:34;2.80;;;2.60;;
7074;SDS011;3578;51.568;6.932;2023-07-28T12:47:02;2.43;;;2.33;;
7074;SDS011;3578;51.568;6.932;2023-07-28T12:49:30;5.77;;;1.63;;
7074;SDS011;3578;51.568;6.932;2023-07-28T12:51:59;2.10;;;2.00;;
7074;SDS011;3578;51.568;6.932;2023-07-28T12:54:27;2.30;;;2.10;;
7074;SDS011;3578;51.568;6.932;2023-07-28T12:56:54;2.13;;;1.90;;
7074;SDS011;3578;51.568;6.932;2023-07-28T12:59:23;3.23;;;2.10;;
7074;SDS011;3578;51.568;6.932;2023-07-28T13:01:50;2.10;;;1.63;;
7074;SDS011;3578;51.568;6.932;2023-07-28T13:04:17;3.07;;;1.97;;
7074;SDS011;3578;51.568;6.932;2023-07-28T13:06:43;1.73;;;1.63;;
7074;SDS011;3578;51.568;6.932;2023-07-28T13:09:11;1.53;;;1.40;;
7074;SDS011;3578;51.568;6.932;2023-07-28T13:11:37;2.33;;;1.50;;
7074;SDS011;3578;51.568;6.932;2023-07-28T13:14:04;2.33;;;1.50;;
7074;SDS011;3578;51.568;6.932;2023-07-28T13:16:33;1.67;;;1.57;;
7074;SDS011;3578;51.568;6.932;2023-07-28T13:19:01;1.40;;;1.40;;
7074;SDS011;3578;51.568;6.932;2023-07-28T13:21:28;1.30;;;1.20;;
7074;SDS011;3578;51.568;6.932;2023-07-28T13:23:55;1.40;;;1.30;;
7074;SDS011;3578;51.568;6.932;2023-07-28T13:26:22;1.33;;;1.23;;
7074;SDS011;3578;51.568;6.932;2023-07-28T13:28:50;1.30;;;1.20;;
7074;SDS011;3578;51.568;6.932;2023-07-28T13:31:17;1.10;;;1.10;;
7074;SDS011;3578;51.568;6.932;2023-07-28T13:33:46;2.60;;;1.43;;
7074;SDS011;3578;51.568;6.932;2023-07-28T13:36:13;1.07;;;1.00;;
7074;SDS011;3578;51.568;6.932;2023-07-28T13:38:40;0.90;;;0.90;;
7074;SDS011;3578;51.568;6.932;2023-07-28T13:41:07;1.63;;;1.07;;
7074;SDS011;3578;51.568;6.932;2023-07-28T13:43:34;1.53;;;1.43;;
7074;SDS011;3578;51.568;6.932;2023-07-28T13:46:02;1.20;;;1.10;;
7074;SDS011;3578;51.568;6.932;2023-07-28T13:48:30;1.97;;;1.03;;
7074;SDS011;3578;51.568;6.932;2023-07-28T13:50:58;1.60;;;1.50;;
7074;SDS011;3578;51.568;6.932;2023-07-28T13:53:27;1.43;;;1.17;;
7074;SDS011;3578;51.568;6.932;2023-07-28T13:55:54;1.23;;;1.13;;
7074;SDS011;3578;51.568;6.932;2023-07-28T13:58:22;1.10;;;1.00;;
7074;SDS011;3578;51.568;6.932;2023-07-28T14:00:50;1.00;;;1.00;;
7074;SDS011;3578;51.568;6.932;2023-07-28T14:03:17;0.90;;;0.90;;
7074;SDS011;3578;51.568;6.932;2023-07-28T14:05:44;2.27;;;0.90;;
7074;SDS011;3578;51.568;6.932;2023-07-28T14:08:13;0.80;;;0.80;;
7074;SDS011;3578;51.568;6.932;2023-07-28T14:10:43;1.93;;;0.80;;
7074;SDS011;3578;51.568;6.932;2023-07-28T14:13:11;0.77;;;0.77;;
7074;SDS011;3578;51.568;6.932;2023-07-28T14:15:38;2.40;;;1.00;;
7074;SDS011;3578;51.568;6.932;2023-07-28T14:18:05;1.73;;;0.80;;
7074;SDS011;3578;51.568;6.932;2023-07-28T14:20:32;1.23;;;0.90;;
7074;SDS011;3578;51.568;6.932;2023-07-28T14:22:59;0.70;;;0.70;;
7074;SDS011;3578;51.568;6.932;2023-07-28T14:25:28;1.10;;;0.73;;
7074;SDS011;3578;51.568;6.932;2023-07-28T14:27:55;0.77;;;0.77;;
7074;SDS011;3578;51.568;6.932;2023-07-28T14:30:22;1.30;;;0.70;;
7074;SDS011;3578;51.568;6.932;2023-07-28T14:32:49;1.73;;;0.97;;
7074;SDS011;3578;51.568;6.932;2023-07-28T14:35:16;0.80;;;0.80;;
7074;SDS011;3578;51.568;6.932;2023-07-28T14:37:43;0.80;;;0.80;;
7074;SDS011;3578;51.568;6.932;2023-07-28T14:40:10;1.00;;;1.00;;
7074;SDS011;3578;51.568;6.932;2023-07-28T14:42:39;1.70;;;0.90;;
7074;SDS011;3578;51.568;6.932;2023-07-28T14:45:06;0.90;;;0.90;;
7074;SDS011;3578;51.568;6.932;2023-07-28T14:47:34;1.43;;;1.33;;
7074;SDS011;3578;51.568;6.932;2023-07-28T14:50:01;4.27;;;1.40;;
7074;SDS011;3578;51.568;6.932;2023-07-28T14:52:29;1.30;;;1.20;;
7074;SDS011;3578;51.568;6.932;2023-07-28T14:54:56;0.80;;;0.80;;
7074;SDS011;3578;51.568;6.932;2023-07-28T14:57:23;0.93;;;0.93;;
7074;SDS011;3578;51.568;6.932;2023-07-28T14:59:51;0.90;;;0.83;;
7074;SDS011;3578;51.568;6.932;2023-07-28T15:02:18;0.97;;;0.97;;
7074;SDS011;3578;51.568;6.932;2023-07-28T15:04:45;2.10;;;1.00;;
7074;SDS011;3578;51.568;6.932;2023-07-28T15:07:13;1.00;;;0.87;;
7074;SDS011;3578;51.568;6.932;2023-07-28T15:09:40;2.30;;;1.30;;